sensor_id;sensor_type;location;lat;lon;timestamp;P1;durP1;ratioP1;P2;durP2;ratioP2
2548;SDS011;1284;53.520;10.248;2023-11-21T00:01:01;2.97;;;1.70;;
2548;SDS011;1284;53.520;10.248;2023-11-21T00:03:29;3.97;;;1.55;;
2548;SDS011;1284;53.520;10.248;2023-11-21T00:05:55;4.45;;;1.85;;
2548;SDS011;1284;53.520;10.248;2023-11-21T00:08:20;3.22;;;2.03;;
2548;SDS011;1284;53.520;10.248;2023-11-21T00:10:48;5.47;;;1.92;;
2548;SDS011;1284;53.520;10.248;2023-11-21T00:13:14;3.92;;;1.98;;
2548;SDS011;1284;53.520;10.248;2023-11-21T00:15:39;3.67;;;2.30;;
2548;SDS011;1284;53.520;10.248;2023-11-21T00:18:05;5.32;;;2.72;;
2548;SDS011;1284;53.520;10.248;2023-11-21T00:20:31;4.55;;;2.28;;
2548;SDS011;1284;53.520;10.248;2023-11-21T00:22:57;10.65;;;3.22;;
2548;SDS011;1284;53.520;10.248;2023-11-21T00:25:22;6.88;;;2.95;;
2548;SDS011;1284;53.520;10.248;2023-11-21T00:27:51;4.70;;;2.85;;
2548;SDS011;1284;53.520;10.248;2023-11-21T00:30:16;5.43;;;2.47;;
2548;SDS011;1284;53.520;10.248;2023-11-21T00:32:42;3.25;;;2.03;;
2548;SDS011;1284;53.520;10.248;2023-11-21T00:35:08;3.97;;;1.92;;
2548;SDS011;1284;53.520;10.248;2023-11-21T00:37:34;3.35;;;2.08;;
2548;SDS011;1284;53.520;10.248;2023-11-21T00:39:59;4.75;;;2.13;;
2548;SDS011;1284;53.520;10.248;2023-11-21T00:42:25;5.82;;;2.53;;
2548;SDS011;1284;53.520;10.248;2023-11-21T00:44:50;5.60;;;2.33;;
2548;SDS011;1284;53.520;10.248;2023-11-21T00:47:16;5.63;;;1.90;;
2548;SDS011;1284;53.520;10.248;2023-11-21T00:49:41;5.63;;;2.47;;
2548;SDS011;1284;53.520;10.248;2023-11-21T00:52:08;5.45;;;2.28;;
2548;SDS011;1284;53.520;10.248;2023-11-21T00:54:33;5.43;;;2.70;;
2548;SDS011;1284;53.520;10.248;2023-11-21T00:56:58;7.22;;;3.25;;
2548;SDS011;1284;53.520;10.248;2023-11-21T00:59:24;3.72;;;2.28;;
2548;SDS011;1284;53.520;10.248;2023-11-21T01:01:50;3.20;;;2.33;;
2548;SDS011;1284;53.520;10.248;2023-11-21T01:04:15;3.78;;;2.40;;
2548;SDS011;1284;53.520;10.248;2023-11-21T01:06:41;4.97;;;1.95;;
2548;SDS011;1284;53.520;10.248;2023-11-21T01:09:08;4.47;;;2.80;;
2548;SDS011;1284;53.520;10.248;2023-11-21T01:11:36;4.72;;;2.60;;
2548;SDS011;1284;53.520;10.248;2023-11-21T01:14:03;7.00;;;2.95;;
2548;SDS011;1284;53.520;10.248;2023-11-21T01:16:30;4.57;;;2.78;;
2548;SDS011;1284;53.520;10.248;2023-11-21T01:18:58;7.13;;;2.88;;
2548;SDS011;1284;53.520;10.248;2023-11-21T01:21:24;5.97;;;3.53;;
2548;SDS011;1284;53.520;10.248;2023-11-21T01:23:50;3.38;;;2.65;;
2548;SDS011;1284;53.520;10.248;2023-11-21T01:26:15;4.40;;;2.17;;
2548;SDS011;1284;53.520;10.248;2023-11-21T01:28:41;4.60;;;2.72;;
2548;SDS011;1284;53.520;10.248;2023-11-21T01:31:06;7.57;;;2.72;;
2548;SDS011;1284;53.520;10.248;2023-11-21T01:33:32;3.67;;;2.17;;
2548;SDS011;1284;53.520;10.248;2023-11-21T01:35:58;4.70;;;2.10;;
2548;SDS011;1284;53.520;10.248;2023-11-21T01:38:25;3.15;;;2.17;;
2548;SDS011;1284;53.520;10.248;2023-11-21T01:40:51;3.00;;;1.92;;
2548;SDS011;1284;53.520;10.248;2023-11-21T01:43:17;5.05;;;2.35;;
2548;SDS011;1284;53.520;10.248;2023-11-21T01:45:43;4.13;;;2.25;;
2548;SDS011;1284;53.520;10.248;2023-11-21T01:48:10;3.45;;;2.17;;
2548;SDS011;1284;53.520;10.248;2023-11-21T01:50:40;3.17;;;1.75;;
2548;SDS011;1284;53.520;10.248;2023-11-21T01:53:07;5.72;;;2.38;;
2548;SDS011;1284;53.520;10.248;2023-11-21T01:55:34;4.05;;;2.47;;
2548;SDS011;1284;53.520;10.248;2023-11-21T01:58:00;3.80;;;1.92;;
2548;SDS011;1284;53.520;10.248;2023-11-21T02:00:26;5.43;;;2.13;;
2548;SDS011;1284;53.520;10.248;2023-11-21T02:02:54;4.00;;;2.08;;
2548;SDS011;1284;53.520;10.248;2023-11-21T02:05:20;3.03;;;1.75;;
2548;SDS011;1284;53.520;10.248;2023-11-21T02:07:47;5.38;;;2.20;;
2548;SDS011;1284;53.520;10.248;2023-11-21T02:10:14;2.10;;;1.30;;
2548;SDS011;1284;53.520;10.248;2023-11-21T02:12:41;6.07;;;2.13;;
2548;SDS011;1284;53.520;10.248;2023-11-21T02:15:13;3.90;;;1.90;;
2548;SDS011;1284;53.520;10.248;2023-11-21T02:17:45;5.25;;;1.90;;
2548;SDS011;1284;53.520;10.248;2023-11-21T02:20:16;3.30;;;1.75;;
2548;SDS011;1284;53.520;10.248;2023-11-21T02:22:44;2.63;;;1.77;;
2548;SDS011;1284;53.520;10.248;2023-11-21T02:27:57;3.58;;;1.75;;
2548;SDS011;1284;53.520;10.248;2023-11-21T02:30:29;4.22;;;2.10;;
2548;SDS011;1284;53.520;10.248;2023-11-21T02:32:58;2.70;;;2.10;;
2548;SDS011;1284;53.520;10.248;2023-11-21T02:35:24;3.30;;;1.88;;
2548;SDS011;1284;53.520;10.248;2023-11-21T02:37:53;2.78;;;1.83;;
2548;SDS011;1284;53.520;10.248;2023-11-21T02:40:19;3.53;;;1.85;;
2548;SDS011;1284;53.520;10.248;2023-11-21T02:42:50;5.57;;;2.53;;
2548;SDS011;1284;53.520;10.248;2023-11-21T02:45:19;2.67;;;2.08;;
2548;SDS011;1284;53.520;10.248;2023-11-21T02:47:46;4.63;;;2.25;;
2548;SDS011;1284;53.520;10.248;2023-11-21T02:50:12;3.75;;;2.05;;
2548;SDS011;1284;53.520;10.248;2023-11-21T02:52:38;3.35;;;1.80;;
2548;SDS011;1284;53.520;10.248;2023-11-21T02:55:05;3.30;;;2.38;;
2548;SDS011;1284;53.520;10.248;2023-11-21T02:57:32;4.07;;;2.17;;
2548;SDS011;1284;53.520;10.248;2023-11-21T02:59:58;3.42;;;1.95;;
2548;SDS011;1284;53.520;10.248;2023-11-21T03:02:25;2.45;;;1.67;;
2548;SDS011;1284;53.520;10.248;2023-11-21T03:04:51;2.67;;;1.60;;
2548;SDS011;1284;53.520;10.248;2023-11-21T03:07:17;2.30;;;1.77;;
2548;SDS011;1284;53.520;10.248;2023-11-21T03:09:44;2.97;;;1.80;;
2548;SDS011;1284;53.520;10.248;2023-11-21T03:12:10;4.20;;;2.38;;
2548;SDS011;1284;53.520;10.248;2023-11-21T03:14:37;3.83;;;2.20;;
2548;SDS011;1284;53.520;10.248;2023-11-21T03:17:03;2.97;;;2.03;;
2548;SDS011;1284;53.520;10.248;2023-11-21T03:19:32;4.95;;;2.30;;
2548;SDS011;1284;53.520;10.248;2023-11-21T03:21:57;2.88;;;2.13;;
2548;SDS011;1284;53.520;10.248;2023-11-21T03:24:24;4.18;;;2.30;;
2548;SDS011;1284;53.520;10.248;2023-11-21T03:26:50;3.33;;;2.28;;
2548;SDS011;1284;53.520;10.248;2023-11-21T03:29:17;3.67;;;1.95;;
2548;SDS011;1284;53.520;10.248;2023-11-21T03:31:42;4.10;;;2.20;;
2548;SDS011;1284;53.520;10.248;2023-11-21T03:34:10;3.65;;;2.22;;
2548;SDS011;1284;53.520;10.248;2023-11-21T03:36:40;4.10;;;2.30;;
2548;SDS011;1284;53.520;10.248;2023-11-21T03:39:05;5.00;;;2.10;;
2548;SDS011;1284;53.520;10.248;2023-11-21T03:41:31;6.55;;;2.67;;
2548;SDS011;1284;53.520;10.248;2023-11-21T03:44:02;4.50;;;2.45;;
2548;SDS011;1284;53.520;10.248;2023-11-21T03:46:28;3.97;;;2.22;;
2548;SDS011;1284;53.520;10.248;2023-11-21T03:48:54;5.95;;;2.63;;
2548;SDS011;1284;53.520;10.248;2023-11-21T03:51:22;6.15;;;2.38;;
2548;SDS011;1284;53.520;10.248;2023-11-21T03:53:47;5.57;;;2.22;;
2548;SDS011;1284;53.520;10.248;2023-11-21T03:56:14;4.47;;;2.33;;
2548;SDS011;1284;53.520;10.248;2023-11-21T03:58:42;3.95;;;1.73;;
2548;SDS011;1284;53.520;10.248;2023-11-21T04:01:07;4.85;;;2.17;;
2548;SDS011;1284;53.520;10.248;2023-11-21T04:03:33;2.80;;;1.70;;
2548;SDS011;1284;53.520;10.248;2023-11-21T04:05:58;3.42;;;1.83;;
2548;SDS011;1284;53.520;10.248;2023-11-21T04:08:24;2.78;;;1.25;;
2548;SDS011;1284;53.520;10.248;2023-11-21T04:10:51;4.00;;;2.45;;
2548;SDS011;1284;53.520;10.248;2023-11-21T04:13:20;6.07;;;2.50;;
2548;SDS011;1284;53.520;10.248;2023-11-21T04:15:48;4.75;;;1.73;;
2548;SDS011;1284;53.520;10.248;2023-11-21T04:18:13;4.00;;;1.98;;
2548;SDS011;1284;53.520;10.248;2023-11-21T04:20:39;7.60;;;2.50;;
2548;SDS011;1284;53.520;10.248;2023-11-21T04:23:07;2.95;;;1.88;;
2548;SDS011;1284;53.520;10.248;2023-11-21T04:25:35;4.75;;;1.90;;
2548;SDS011;1284;53.520;10.248;2023-11-21T04:28:00;3.67;;;2.10;;
2548;SDS011;1284;53.520;10.248;2023-11-21T04:30:26;4.05;;;1.92;;
2548;SDS011;1284;53.520;10.248;2023-11-21T04:33:00;5.13;;;2.90;;
2548;SDS011;1284;53.520;10.248;2023-11-21T04:35:25;3.08;;;1.77;;
2548;SDS011;1284;53.520;10.248;2023-11-21T04:37:51;4.95;;;3.33;;
2548;SDS011;1284;53.520;10.248;2023-11-21T04:40:16;4.18;;;1.98;;
2548;SDS011;1284;53.520;10.248;2023-11-21T04:42:42;3.65;;;1.95;;
2548;SDS011;1284;53.520;10.248;2023-11-21T04:45:08;4.93;;;2.13;;
2548;SDS011;1284;53.520;10.248;2023-11-21T04:47:34;3.35;;;2.03;;
2548;SDS011;1284;53.520;10.248;2023-11-21T04:50:01;4.25;;;2.28;;
2548;SDS011;1284;53.520;10.248;2023-11-21T04:52:28;5.22;;;2.30;;
2548;SDS011;1284;53.520;10.248;2023-11-21T04:54:53;2.22;;;1.55;;
2548;SDS011;1284;53.520;10.248;2023-11-21T04:57:20;3.40;;;2.13;;
2548;SDS011;1284;53.520;10.248;2023-11-21T04:59:47;2.92;;;2.00;;
2548;SDS011;1284;53.520;10.248;2023-11-21T05:02:13;4.13;;;2.00;;
2548;SDS011;1284;53.520;10.248;2023-11-21T05:04:39;3.50;;;1.85;;
2548;SDS011;1284;53.520;10.248;2023-11-21T05:07:04;3.25;;;2.13;;
2548;SDS011;1284;53.520;10.248;2023-11-21T05:09:30;4.40;;;2.53;;
2548;SDS011;1284;53.520;10.248;2023-11-21T05:11:57;4.40;;;2.10;;
2548;SDS011;1284;53.520;10.248;2023-11-21T05:14:23;2.80;;;1.92;;
2548;SDS011;1284;53.520;10.248;2023-11-21T05:16:48;3.53;;;2.03;;
2548;SDS011;1284;53.520;10.248;2023-11-21T05:19:16;3.63;;;2.20;;
2548;SDS011;1284;53.520;10.248;2023-11-21T05:21:41;4.93;;;2.28;;
2548;SDS011;1284;53.520;10.248;2023-11-21T05:24:06;3.45;;;2.15;;
2548;SDS011;1284;53.520;10.248;2023-11-21T05:26:32;4.18;;;2.47;;
2548;SDS011;1284;53.520;10.248;2023-11-21T05:28:57;3.72;;;2.25;;
2548;SDS011;1284;53.520;10.248;2023-11-21T05:31:23;3.65;;;2.30;;
2548;SDS011;1284;53.520;10.248;2023-11-21T05:33:48;2.95;;;1.95;;
2548;SDS011;1284;53.520;10.248;2023-11-21T05:36:14;3.15;;;2.10;;
2548;SDS011;1284;53.520;10.248;2023-11-21T05:38:39;2.92;;;1.73;;
2548;SDS011;1284;53.520;10.248;2023-11-21T05:41:04;3.53;;;2.30;;
2548;SDS011;1284;53.520;10.248;2023-11-21T05:43:30;2.92;;;1.90;;
2548;SDS011;1284;53.520;10.248;2023-11-21T05:45:57;2.75;;;1.98;;
2548;SDS011;1284;53.520;10.248;2023-11-21T05:48:22;3.90;;;2.25;;
2548;SDS011;1284;53.520;10.248;2023-11-21T05:50:52;3.50;;;2.35;;
2548;SDS011;1284;53.520;10.248;2023-11-21T05:53:17;3.40;;;1.92;;
2548;SDS011;1284;53.520;10.248;2023-11-21T05:55:43;4.20;;;2.47;;
2548;SDS011;1284;53.520;10.248;2023-11-21T05:58:08;3.20;;;2.00;;
2548;SDS011;1284;53.520;10.248;2023-11-21T06:00:34;3.90;;;2.55;;
2548;SDS011;1284;53.520;10.248;2023-11-21T06:03:00;3.75;;;2.40;;
2548;SDS011;1284;53.520;10.248;2023-11-21T06:05:26;4.10;;;2.13;;
2548;SDS011;1284;53.520;10.248;2023-11-21T06:07:52;2.95;;;2.08;;
2548;SDS011;1284;53.520;10.248;2023-11-21T06:10:22;4.15;;;2.20;;
2548;SDS011;1284;53.520;10.248;2023-11-21T06:12:49;3.72;;;1.92;;
2548;SDS011;1284;53.520;10.248;2023-11-21T06:15:14;3.80;;;2.47;;
2548;SDS011;1284;53.520;10.248;2023-11-21T06:17:40;2.90;;;2.03;;
2548;SDS011;1284;53.520;10.248;2023-11-21T06:20:07;4.20;;;1.83;;
2548;SDS011;1284;53.520;10.248;2023-11-21T06:22:34;4.90;;;2.42;;
2548;SDS011;1284;53.520;10.248;2023-11-21T06:25:01;5.88;;;2.30;;
2548;SDS011;1284;53.520;10.248;2023-11-21T06:27:28;4.38;;;2.28;;
2548;SDS011;1284;53.520;10.248;2023-11-21T06:29:54;4.15;;;2.22;;
2548;SDS011;1284;53.520;10.248;2023-11-21T06:32:22;10.20;;;2.40;;
2548;SDS011;1284;53.520;10.248;2023-11-21T06:34:48;3.58;;;2.33;;
2548;SDS011;1284;53.520;10.248;2023-11-21T06:37:14;3.92;;;2.08;;
2548;SDS011;1284;53.520;10.248;2023-11-21T06:39:40;4.32;;;2.05;;
2548;SDS011;1284;53.520;10.248;2023-11-21T06:42:06;4.30;;;2.63;;
2548;SDS011;1284;53.520;10.248;2023-11-21T06:44:35;7.68;;;2.92;;
2548;SDS011;1284;53.520;10.248;2023-11-21T06:47:02;4.07;;;2.38;;
2548;SDS011;1284;53.520;10.248;2023-11-21T06:49:28;2.90;;;2.05;;
2548;SDS011;1284;53.520;10.248;2023-11-21T06:51:53;5.45;;;2.65;;
2548;SDS011;1284;53.520;10.248;2023-11-21T06:54:20;4.53;;;2.35;;
2548;SDS011;1284;53.520;10.248;2023-11-21T06:56:46;6.78;;;2.67;;
2548;SDS011;1284;53.520;10.248;2023-11-21T06:59:15;6.10;;;2.75;;
2548;SDS011;1284;53.520;10.248;2023-11-21T07:01:43;5.80;;;2.75;;
2548;SDS011;1284;53.520;10.248;2023-11-21T07:04:09;4.13;;;2.10;;
2548;SDS011;1284;53.520;10.248;2023-11-21T07:06:35;4.15;;;1.90;;
2548;SDS011;1284;53.520;10.248;2023-11-21T07:09:00;3.22;;;2.20;;
2548;SDS011;1284;53.520;10.248;2023-11-21T07:11:26;3.42;;;1.90;;
2548;SDS011;1284;53.520;10.248;2023-11-21T07:13:52;8.30;;;2.72;;
2548;SDS011;1284;53.520;10.248;2023-11-21T07:16:18;4.20;;;2.15;;
2548;SDS011;1284;53.520;10.248;2023-11-21T07:18:44;5.95;;;2.25;;
2548;SDS011;1284;53.520;10.248;2023-11-21T07:21:14;2.65;;;2.03;;
2548;SDS011;1284;53.520;10.248;2023-11-21T07:23:41;5.25;;;2.65;;
2548;SDS011;1284;53.520;10.248;2023-11-21T07:26:08;6.10;;;3.05;;
2548;SDS011;1284;53.520;10.248;2023-11-21T07:28:35;7.13;;;3.55;;
2548;SDS011;1284;53.520;10.248;2023-11-21T07:31:01;5.35;;;3.03;;
2548;SDS011;1284;53.520;10.248;2023-11-21T07:33:27;7.82;;;3.00;;
2548;SDS011;1284;53.520;10.248;2023-11-21T07:35:52;6.78;;;3.13;;
2548;SDS011;1284;53.520;10.248;2023-11-21T07:38:18;5.22;;;3.33;;
2548;SDS011;1284;53.520;10.248;2023-11-21T07:40:43;3.85;;;2.60;;
2548;SDS011;1284;53.520;10.248;2023-11-21T07:43:09;5.07;;;2.67;;
2548;SDS011;1284;53.520;10.248;2023-11-21T07:45:35;4.50;;;2.53;;
2548;SDS011;1284;53.520;10.248;2023-11-21T07:48:01;5.43;;;2.67;;
2548;SDS011;1284;53.520;10.248;2023-11-21T07:50:28;4.85;;;2.72;;
2548;SDS011;1284;53.520;10.248;2023-11-21T07:52:54;6.13;;;2.97;;
2548;SDS011;1284;53.520;10.248;2023-11-21T07:55:20;3.88;;;2.13;;
2548;SDS011;1284;53.520;10.248;2023-11-21T07:57:46;3.10;;;2.42;;
2548;SDS011;1284;53.520;10.248;2023-11-21T08:00:12;4.05;;;2.20;;
2548;SDS011;1284;53.520;10.248;2023-11-21T08:02:38;3.88;;;2.28;;
2548;SDS011;1284;53.520;10.248;2023-11-21T08:05:07;4.07;;;2.60;;
2548;SDS011;1284;53.520;10.248;2023-11-21T08:07:33;6.50;;;2.55;;
2548;SDS011;1284;53.520;10.248;2023-11-21T08:09:59;3.58;;;1.85;;
2548;SDS011;1284;53.520;10.248;2023-11-21T08:12:24;4.28;;;2.20;;
2548;SDS011;1284;53.520;10.248;2023-11-21T08:14:51;3.22;;;2.17;;
2548;SDS011;1284;53.520;10.248;2023-11-21T08:17:16;5.07;;;2.70;;
2548;SDS011;1284;53.520;10.248;2023-11-21T08:19:42;5.72;;;2.35;;
2548;SDS011;1284;53.520;10.248;2023-11-21T08:22:07;4.75;;;3.10;;
2548;SDS011;1284;53.520;10.248;2023-11-21T08:24:33;3.92;;;2.08;;
2548;SDS011;1284;53.520;10.248;2023-11-21T08:26:58;3.72;;;2.25;;
2548;SDS011;1284;53.520;10.248;2023-11-21T08:29:24;4.25;;;2.05;;
2548;SDS011;1284;53.520;10.248;2023-11-21T08:31:49;2.55;;;2.33;;
2548;SDS011;1284;53.520;10.248;2023-11-21T08:34:15;3.53;;;2.20;;
2548;SDS011;1284;53.520;10.248;2023-11-21T08:36:41;5.78;;;2.10;;
2548;SDS011;1284;53.520;10.248;2023-11-21T08:39:07;2.20;;;1.50;;
2548;SDS011;1284;53.520;10.248;2023-11-21T08:41:34;4.07;;;2.10;;
2548;SDS011;1284;53.520;10.248;2023-11-21T08:44:00;3.88;;;2.33;;
2548;SDS011;1284;53.520;10.248;2023-11-21T08:46:28;3.45;;;2.00;;
2548;SDS011;1284;53.520;10.248;2023-11-21T08:48:53;4.85;;;2.67;;
2548;SDS011;1284;53.520;10.248;2023-11-21T08:51:18;3.10;;;1.85;;
2548;SDS011;1284;53.520;10.248;2023-11-21T08:53:44;3.30;;;1.90;;
2548;SDS011;1284;53.520;10.248;2023-11-21T08:56:13;2.97;;;2.13;;
2548;SDS011;1284;53.520;10.248;2023-11-21T08:58:41;4.22;;;1.67;;
2548;SDS011;1284;53.520;10.248;2023-11-21T09:01:07;4.13;;;2.45;;
2548;SDS011;1284;53.520;10.248;2023-11-21T09:03:32;2.35;;;1.88;;
2548;SDS011;1284;53.520;10.248;2023-11-21T09:05:59;2.78;;;1.95;;
2548;SDS011;1284;53.520;10.248;2023-11-21T09:08:24;4.75;;;1.80;;
2548;SDS011;1284;53.520;10.248;2023-11-21T09:10:50;3.55;;;2.05;;
2548;SDS011;1284;53.520;10.248;2023-11-21T09:13:17;4.38;;;2.08;;
2548;SDS011;1284;53.520;10.248;2023-11-21T09:15:43;3.65;;;2.03;;
2548;SDS011;1284;53.520;10.248;2023-11-21T09:18:14;2.78;;;1.98;;
2548;SDS011;1284;53.520;10.248;2023-11-21T09:20:40;2.88;;;1.98;;
2548;SDS011;1284;53.520;10.248;2023-11-21T09:23:07;3.35;;;1.90;;
2548;SDS011;1284;53.520;10.248;2023-11-21T09:25:32;2.38;;;1.45;;
2548;SDS011;1284;53.520;10.248;2023-11-21T09:27:58;2.05;;;1.48;;
2548;SDS011;1284;53.520;10.248;2023-11-21T09:30:23;2.00;;;1.40;;
2548;SDS011;1284;53.520;10.248;2023-11-21T09:32:50;2.30;;;1.52;;
2548;SDS011;1284;53.520;10.248;2023-11-21T09:35:16;1.88;;;1.35;;
2548;SDS011;1284;53.520;10.248;2023-11-21T09:37:45;2.17;;;1.55;;
2548;SDS011;1284;53.520;10.248;2023-11-21T09:40:11;1.77;;;1.48;;
2548;SDS011;1284;53.520;10.248;2023-11-21T09:43:05;2.03;;;1.33;;
2548;SDS011;1284;53.520;10.248;2023-11-21T09:45:35;3.38;;;1.33;;
2548;SDS011;1284;53.520;10.248;2023-11-21T09:48:06;1.42;;;0.85;;
2548;SDS011;1284;53.520;10.248;2023-11-21T09:50:34;1.85;;;1.10;;
2548;SDS011;1284;53.520;10.248;2023-11-21T09:55:35;3.35;;;1.48;;
2548;SDS011;1284;53.520;10.248;2023-11-21T09:58:05;2.20;;;1.27;;
2548;SDS011;1284;53.520;10.248;2023-11-21T10:03:03;1.58;;;1.30;;
2548;SDS011;1284;53.520;10.248;2023-11-21T10:05:29;2.78;;;1.30;;
2548;SDS011;1284;53.520;10.248;2023-11-21T10:07:55;1.52;;;1.20;;
2548;SDS011;1284;53.520;10.248;2023-11-21T10:10:22;2.67;;;1.50;;
2548;SDS011;1284;53.520;10.248;2023-11-21T10:12:50;3.50;;;1.88;;
2548;SDS011;1284;53.520;10.248;2023-11-21T10:15:23;2.08;;;1.90;;
2548;SDS011;1284;53.520;10.248;2023-11-21T10:17:52;3.38;;;1.75;;
2548;SDS011;1284;53.520;10.248;2023-11-21T10:20:25;2.83;;;1.17;;
2548;SDS011;1284;53.520;10.248;2023-11-21T10:22:50;3.55;;;1.65;;
2548;SDS011;1284;53.520;10.248;2023-11-21T10:25:16;1.63;;;1.27;;
2548;SDS011;1284;53.520;10.248;2023-11-21T10:27:43;1.50;;;1.30;;
2548;SDS011;1284;53.520;10.248;2023-11-21T10:30:17;2.13;;;1.05;;
2548;SDS011;1284;53.520;10.248;2023-11-21T10:32:43;2.30;;;1.67;;
2548;SDS011;1284;53.520;10.248;2023-11-21T10:35:08;2.30;;;1.30;;
2548;SDS011;1284;53.520;10.248;2023-11-21T10:37:37;2.75;;;1.50;;
2548;SDS011;1284;53.520;10.248;2023-11-21T10:40:09;2.35;;;1.30;;
2548;SDS011;1284;53.520;10.248;2023-11-21T10:42:38;1.80;;;1.35;;
2548;SDS011;1284;53.520;10.248;2023-11-21T10:45:05;3.55;;;1.52;;
2548;SDS011;1284;53.520;10.248;2023-11-21T10:47:41;2.15;;;1.25;;
2548;SDS011;1284;53.520;10.248;2023-11-21T10:50:10;3.70;;;2.00;;
2548;SDS011;1284;53.520;10.248;2023-11-21T10:52:39;2.20;;;1.50;;
2548;SDS011;1284;53.520;10.248;2023-11-21T10:55:18;1.38;;;1.27;;
2548;SDS011;1284;53.520;10.248;2023-11-21T10:57:51;2.25;;;0.95;;
2548;SDS011;1284;53.520;10.248;2023-11-21T11:00:18;2.80;;;1.42;;
2548;SDS011;1284;53.520;10.248;2023-11-21T11:02:52;2.47;;;1.27;;
2548;SDS011;1284;53.520;10.248;2023-11-21T11:05:22;1.85;;;1.40;;
2548;SDS011;1284;53.520;10.248;2023-11-21T11:07:56;3.15;;;1.70;;
2548;SDS011;1284;53.520;10.248;2023-11-21T11:10:27;2.58;;;1.55;;
2548;SDS011;1284;53.520;10.248;2023-11-21T11:12:54;4.70;;;1.50;;
2548;SDS011;1284;53.520;10.248;2023-11-21T11:15:22;5.72;;;1.73;;
2548;SDS011;1284;53.520;10.248;2023-11-21T11:17:48;1.27;;;1.17;;
2548;SDS011;1284;53.520;10.248;2023-11-21T11:20:14;2.72;;;1.33;;
2548;SDS011;1284;53.520;10.248;2023-11-21T11:22:55;3.15;;;1.60;;
2548;SDS011;1284;53.520;10.248;2023-11-21T11:28:03;6.50;;;1.40;;
2548;SDS011;1284;53.520;10.248;2023-11-21T11:38:23;2.03;;;1.45;;
2548;SDS011;1284;53.520;10.248;2023-11-21T11:40:52;1.73;;;1.08;;
2548;SDS011;1284;53.520;10.248;2023-11-21T11:43:25;2.63;;;1.23;;
2548;SDS011;1284;53.520;10.248;2023-11-21T11:45:52;2.05;;;1.35;;
2548;SDS011;1284;53.520;10.248;2023-11-21T11:48:21;2.03;;;1.42;;
2548;SDS011;1284;53.520;10.248;2023-11-21T11:51:03;1.20;;;1.13;;
2548;SDS011;1284;53.520;10.248;2023-11-21T11:53:35;1.95;;;1.48;;
2548;SDS011;1284;53.520;10.248;2023-11-21T11:58:50;2.17;;;1.50;;
2548;SDS011;1284;53.520;10.248;2023-11-21T12:01:18;2.85;;;1.30;;
2548;SDS011;1284;53.520;10.248;2023-11-21T12:03:44;3.10;;;1.45;;
2548;SDS011;1284;53.520;10.248;2023-11-21T12:06:33;2.53;;;1.25;;
2548;SDS011;1284;53.520;10.248;2023-11-21T12:09:01;1.92;;;1.38;;
2548;SDS011;1284;53.520;10.248;2023-11-21T12:11:30;2.87;;;1.87;;
2548;SDS011;1284;53.520;10.248;2023-11-21T12:13:57;2.80;;;1.55;;
2548;SDS011;1284;53.520;10.248;2023-11-21T12:16:24;2.83;;;1.58;;
2548;SDS011;1284;53.520;10.248;2023-11-21T12:18:52;2.55;;;1.80;;
2548;SDS011;1284;53.520;10.248;2023-11-21T12:21:19;2.53;;;1.35;;
2548;SDS011;1284;53.520;10.248;2023-11-21T12:23:45;2.58;;;1.33;;
2548;SDS011;1284;53.520;10.248;2023-11-21T12:26:13;2.40;;;1.40;;
2548;SDS011;1284;53.520;10.248;2023-11-21T12:28:39;3.63;;;1.20;;
2548;SDS011;1284;53.520;10.248;2023-11-21T12:31:04;2.72;;;1.55;;
2548;SDS011;1284;53.520;10.248;2023-11-21T12:33:32;2.58;;;1.58;;
2548;SDS011;1284;53.520;10.248;2023-11-21T12:36:00;2.08;;;1.33;;
2548;SDS011;1284;53.520;10.248;2023-11-21T12:38:33;1.95;;;1.30;;
2548;SDS011;1284;53.520;10.248;2023-11-21T12:41:00;2.70;;;1.52;;
2548;SDS011;1284;53.520;10.248;2023-11-21T12:43:25;2.63;;;1.63;;
2548;SDS011;1284;53.520;10.248;2023-11-21T12:45:51;3.50;;;1.60;;
2548;SDS011;1284;53.520;10.248;2023-11-21T12:48:31;2.33;;;1.35;;
2548;SDS011;1284;53.520;10.248;2023-11-21T12:51:02;2.03;;;1.20;;
2548;SDS011;1284;53.520;10.248;2023-11-21T12:53:28;1.85;;;1.38;;
2548;SDS011;1284;53.520;10.248;2023-11-21T12:56:01;2.38;;;1.40;;
2548;SDS011;1284;53.520;10.248;2023-11-21T12:58:28;2.15;;;1.30;;
2548;SDS011;1284;53.520;10.248;2023-11-21T13:00:56;3.70;;;1.55;;
2548;SDS011;1284;53.520;10.248;2023-11-21T13:03:24;4.60;;;1.83;;
2548;SDS011;1284;53.520;10.248;2023-11-21T13:05:51;2.60;;;1.90;;
2548;SDS011;1284;53.520;10.248;2023-11-21T13:08:22;3.03;;;1.63;;
2548;SDS011;1284;53.520;10.248;2023-11-21T13:10:53;2.92;;;1.50;;
2548;SDS011;1284;53.520;10.248;2023-11-21T13:18:21;1.40;;;1.30;;
2548;SDS011;1284;53.520;10.248;2023-11-21T13:20:48;3.53;;;1.40;;
2548;SDS011;1284;53.520;10.248;2023-11-21T13:23:15;2.03;;;1.50;;
2548;SDS011;1284;53.520;10.248;2023-11-21T13:25:44;3.92;;;1.60;;
2548;SDS011;1284;53.520;10.248;2023-11-21T13:28:14;1.50;;;1.08;;
2548;SDS011;1284;53.520;10.248;2023-11-21T13:30:46;1.70;;;1.25;;
2548;SDS011;1284;53.520;10.248;2023-11-21T13:33:13;1.60;;;1.27;;
2548;SDS011;1284;53.520;10.248;2023-11-21T13:35:43;1.23;;;0.93;;
2548;SDS011;1284;53.520;10.248;2023-11-21T13:38:13;3.28;;;1.38;;
2548;SDS011;1284;53.520;10.248;2023-11-21T13:40:42;2.90;;;1.20;;
2548;SDS011;1284;53.520;10.248;2023-11-21T13:43:14;1.00;;;0.90;;
2548;SDS011;1284;53.520;10.248;2023-11-21T13:45:42;2.10;;;1.50;;
2548;SDS011;1284;53.520;10.248;2023-11-21T13:48:09;3.45;;;1.27;;
2548;SDS011;1284;53.520;10.248;2023-11-21T13:50:36;1.92;;;1.35;;
2548;SDS011;1284;53.520;10.248;2023-11-21T13:53:23;3.78;;;1.75;;
2548;SDS011;1284;53.520;10.248;2023-11-21T13:55:52;1.90;;;1.48;;
2548;SDS011;1284;53.520;10.248;2023-11-21T13:58:25;2.13;;;1.38;;
2548;SDS011;1284;53.520;10.248;2023-11-21T14:01:10;1.55;;;1.23;;
2548;SDS011;1284;53.520;10.248;2023-11-21T14:04:02;2.83;;;1.42;;
2548;SDS011;1284;53.520;10.248;2023-11-21T14:06:34;2.13;;;1.63;;
2548;SDS011;1284;53.520;10.248;2023-11-21T14:09:10;2.78;;;1.63;;
2548;SDS011;1284;53.520;10.248;2023-11-21T14:11:39;2.20;;;1.80;;
2548;SDS011;1284;53.520;10.248;2023-11-21T14:14:04;1.80;;;1.10;;
2548;SDS011;1284;53.520;10.248;2023-11-21T14:16:30;4.38;;;1.70;;
2548;SDS011;1284;53.520;10.248;2023-11-21T14:18:56;2.00;;;1.35;;
2548;SDS011;1284;53.520;10.248;2023-11-21T14:21:29;2.22;;;1.48;;
2548;SDS011;1284;53.520;10.248;2023-11-21T14:23:54;1.95;;;1.25;;
2548;SDS011;1284;53.520;10.248;2023-11-21T14:26:20;2.65;;;1.45;;
2548;SDS011;1284;53.520;10.248;2023-11-21T14:28:46;2.65;;;1.50;;
2548;SDS011;1284;53.520;10.248;2023-11-21T14:31:14;1.65;;;1.08;;
2548;SDS011;1284;53.520;10.248;2023-11-21T14:33:42;1.60;;;1.50;;
2548;SDS011;1284;53.520;10.248;2023-11-21T14:36:11;1.25;;;0.93;;
2548;SDS011;1284;53.520;10.248;2023-11-21T14:38:37;2.83;;;1.20;;
2548;SDS011;1284;53.520;10.248;2023-11-21T14:41:04;6.35;;;1.45;;
2548;SDS011;1284;53.520;10.248;2023-11-21T14:43:33;2.22;;;1.25;;
2548;SDS011;1284;53.520;10.248;2023-11-21T14:46:01;3.22;;;1.45;;
2548;SDS011;1284;53.520;10.248;2023-11-21T14:48:28;1.83;;;1.15;;
2548;SDS011;1284;53.520;10.248;2023-11-21T14:51:13;1.95;;;1.23;;
2548;SDS011;1284;53.520;10.248;2023-11-21T14:53:38;2.22;;;1.40;;
2548;SDS011;1284;53.520;10.248;2023-11-21T14:56:22;3.95;;;1.38;;
2548;SDS011;1284;53.520;10.248;2023-11-21T14:58:58;1.38;;;1.17;;
2548;SDS011;1284;53.520;10.248;2023-11-21T15:01:42;1.80;;;1.23;;
2548;SDS011;1284;53.520;10.248;2023-11-21T15:04:23;1.17;;;1.00;;
2548;SDS011;1284;53.520;10.248;2023-11-21T15:07:04;1.33;;;0.77;;
2548;SDS011;1284;53.520;10.248;2023-11-21T15:09:33;1.58;;;1.10;;
2548;SDS011;1284;53.520;10.248;2023-11-21T15:11:59;1.30;;;0.85;;
2548;SDS011;1284;53.520;10.248;2023-11-21T15:14:39;2.00;;;0.90;;
2548;SDS011;1284;53.520;10.248;2023-11-21T15:17:04;1.48;;;0.73;;
2548;SDS011;1284;53.520;10.248;2023-11-21T15:19:31;2.38;;;1.20;;
2548;SDS011;1284;53.520;10.248;2023-11-21T15:21:57;1.25;;;0.98;;
2548;SDS011;1284;53.520;10.248;2023-11-21T15:24:23;1.33;;;1.23;;
2548;SDS011;1284;53.520;10.248;2023-11-21T15:26:50;0.80;;;0.77;;
2548;SDS011;1284;53.520;10.248;2023-11-21T15:29:15;1.15;;;0.88;;